Time;durP1;ratioP1;P1;durP2;ratioP2;P2;SDS_P1;SDS_P2;PMS_P1;PMS_P2;Temp;Humidity;BMP_temperature;BMP_pressure;BME280_temperature;BME280_humidity;BME280_pressure;Samples;Min_cycle;Max_cycle;Signal;HPM_P1;HPM_P2
2023/04/14 00:01:19;;;;;;;0.60;0.60;;;;;;;5.43;44.06;91181.19;5082144;28;20039;-76
2023/04/14 00:03:45;;;;;;;1.48;0.70;;;;;;;5.41;45.22;91179.94;5100898;28;20036;-76
2023/04/14 00:06:10;;;;;;;1.45;0.70;;;;;;;5.45;44.59;91186.09;5100213;28;20035;-76
2023/04/14 00:08:36;;;;;;;0.50;0.50;;;;;;;5.57;42.79;91178.59;5100883;28;20043;-76
2023/04/14 00:11:01;;;;;;;0.60;0.60;;;;;;;5.54;42.47;91186.97;5094058;28;20071;-76
2023/04/14 00:13:27;;;;;;;0.63;0.63;;;;;;;5.53;42.66;91185.41;5106221;28;20051;-76
2023/04/14 00:15:54;;;;;;;0.50;0.50;;;;;;;5.56;42.19;91190.06;5097201;28;20040;-76
2023/04/14 00:18:19;;;;;;;0.70;0.70;;;;;;;5.53;42.31;91195.03;5093507;28;20039;-76
2023/04/14 00:20:46;;;;;;;0.43;0.43;;;;;;;5.62;41.81;91188.88;5104391;28;20131;-76
2023/04/14 00:23:11;;;;;;;0.50;0.50;;;;;;;5.65;42.35;91192.72;5100292;28;20050;-76
2023/04/14 00:25:37;;;;;;;0.40;0.40;;;;;;;5.75;40.72;91197.00;5098849;28;20036;-76
2023/04/14 00:28:03;;;;;;;0.50;0.50;;;;;;;5.75;40.74;91197.75;5101521;28;20117;-76
2023/04/14 00:30:29;;;;;;;0.43;0.43;;;;;;;5.97;40.14;91189.34;5102197;28;20023;-76
2023/04/14 00:32:55;;;;;;;0.65;0.65;;;;;;;5.95;40.85;91188.84;5100398;28;20046;-76
2023/04/14 00:35:23;;;;;;;0.75;0.60;;;;;;;5.83;42.45;91193.72;5095374;28;20122;-76
2023/04/14 00:37:50;;;;;;;0.43;0.43;;;;;;;5.76;41.86;91185.53;5097806;28;20506;-76
2023/04/14 00:40:16;;;;;;;1.70;0.75;;;;;;;5.87;40.79;91193.91;5101135;28;20055;-76
2023/04/14 00:42:45;;;;;;;0.60;0.60;;;;;;;5.74;42.35;91191.03;5082654;28;20568;-76
2023/04/14 00:45:13;;;;;;;0.52;0.52;;;;;;;5.60;43.74;91196.19;5096789;28;20034;-76
2023/04/14 00:47:40;;;;;;;0.60;0.60;;;;;;;5.45;44.71;91199.06;5098365;28;20068;-76
2023/04/14 00:50:10;;;;;;;0.73;0.70;;;;;;;5.28;46.08;91201.41;5092356;28;20067;-76
2023/04/14 00:52:37;;;;;;;0.70;0.70;;;;;;;5.14;47.15;91199.56;5102898;28;20114;-76
2023/04/14 00:55:04;;;;;;;0.85;0.85;;;;;;;5.06;47.56;91189.06;5101638;28;20503;-76
2023/04/14 00:57:30;;;;;;;0.52;0.52;;;;;;;4.99;47.76;91197.19;5083799;28;20046;-76
2023/04/14 00:59:58;;;;;;;2.05;0.70;;;;;;;4.90;48.10;91199.66;5102758;28;20063;-76
2023/04/14 01:02:26;;;;;;;0.50;0.50;;;;;;;4.84;47.87;91202.59;5102008;28;20023;-76
2023/04/14 01:04:52;;;;;;;0.43;0.43;;;;;;;4.81;48.17;91201.34;5090343;28;20056;-76
2023/04/14 01:07:19;;;;;;;0.60;0.60;;;;;;;4.75;48.07;91200.66;5102321;28;20473;-76
2023/04/14 01:09:45;;;;;;;0.60;0.60;;;;;;;4.78;46.41;91201.91;5102236;28;20023;-76
2023/04/14 01:12:27;;;;;;;1.27;0.60;;;;;;;4.74;46.48;91193.16;5103392;28;20578;-76
2023/04/14 01:14:58;;;;;;;0.70;0.70;;;;;;;4.76;45.83;91198.84;5101740;27;20042;-76
2023/04/14 01:17:44;;;;;;;0.98;0.90;;;;;;;4.75;46.09;91187.69;5102492;28;20687;-75
2023/04/14 01:20:35;;;;;;;0.90;0.63;;;;;;;4.81;45.74;91193.56;5104882;28;20475;-77
2023/04/14 01:23:07;;;;;;;0.60;0.60;;;;;;;4.86;46.35;91190.13;5087792;28;20028;-77
2023/04/14 01:25:51;;;;;;;0.50;0.50;;;;;;;4.86;44.08;91203.09;5100204;28;20153;-75
2023/04/14 01:28:20;;;;;;;0.60;0.60;;;;;;;4.84;46.26;91194.81;5091952;28;20046;-76
2023/04/14 01:31:01;;;;;;;0.75;0.50;;;;;;;4.77;46.64;91201.16;5100011;28;20031;-77
2023/04/14 01:33:33;;;;;;;0.60;0.60;;;;;;;4.75;47.12;91197.28;5102150;28;20040;-77
2023/04/14 01:36:04;;;;;;;0.93;0.85;;;;;;;4.92;42.23;91194.19;5106901;28;20037;-77
2023/04/14 01:38:33;;;;;;;0.77;0.73;;;;;;;4.92;43.87;91191.59;5106219;28;20035;-76
2023/04/14 01:41:04;;;;;;;0.77;0.70;;;;;;;5.16;42.12;91189.66;5103134;28;20119;-76
2023/04/14 01:43:32;;;;;;;0.98;0.70;;;;;;;5.35;41.36;91188.84;5103223;28;20510;-76
2023/04/14 01:46:05;;;;;;;0.80;0.80;;;;;;;5.42;42.74;91189.25;5106308;27;20110;-76
2023/04/14 01:48:32;;;;;;;0.55;0.55;;;;;;;5.57;42.20;91181.19;5102776;28;20610;-76
2023/04/14 01:50:59;;;;;;;0.60;0.60;;;;;;;5.43;42.01;91181.19;5103424;28;20039;-75
2023/04/14 01:53:27;;;;;;;0.77;0.60;;;;;;;5.49;41.49;91189.63;5102446;28;20032;-77
2023/04/14 01:55:54;;;;;;;0.68;0.52;;;;;;;5.51;42.27;91178.97;5104610;27;20039;-77
2023/04/14 01:58:22;;;;;;;0.98;0.77;;;;;;;5.35;44.20;91171.44;5105647;28;20108;-77
2023/04/14 02:00:49;;;;;;;1.33;0.80;;;;;;;5.31;41.54;91182.69;5101967;28;20039;-77
2023/04/14 02:03:18;;;;;;;0.70;0.70;;;;;;;5.22;44.09;91185.94;5102986;28;20031;-77
2023/04/14 02:05:46;;;;;;;0.50;0.50;;;;;;;5.32;42.32;91179.03;5108440;28;20176;-77
2023/04/14 02:08:13;;;;;;;0.60;0.60;;;;;;;5.40;42.22;91183.56;5099449;28;20047;-77
2023/04/14 02:10:41;;;;;;;0.80;0.68;;;;;;;5.36;42.58;91182.63;5082540;28;20043;-77
2023/04/14 02:13:09;;;;;;;0.70;0.70;;;;;;;5.28;42.85;91189.22;5112786;27;20612;-77
2023/04/14 02:15:37;;;;;;;0.70;0.70;;;;;;;5.20;43.20;91185.47;5103049;27;20039;-76
2023/04/14 02:18:05;;;;;;;0.80;0.75;;;;;;;5.22;42.20;91177.38;5096228;27;20045;-77
2023/04/14 02:20:32;;;;;;;0.60;0.60;;;;;;;5.24;42.60;91171.91;5103559;27;20449;-76
2023/04/14 02:22:59;;;;;;;0.80;0.80;;;;;;;5.18;43.14;91179.78;5123865;27;20477;-77
2023/04/14 02:25:32;;;;;;;0.90;0.77;;;;;;;5.14;42.59;91176.22;5121968;27;20039;-77
2023/04/14 02:28:20;;;;;;;0.73;0.50;;;;;;;5.19;42.02;91176.13;5124887;27;20034;-75
2023/04/14 02:30:50;;;;;;;0.40;0.40;;;;;;;5.27;42.65;91173.91;5120682;27;20035;-75
2023/04/14 02:33:20;;;;;;;0.60;0.60;;;;;;;5.29;41.38;91164.81;5107828;27;20194;-75
2023/04/14 02:35:51;;;;;;;0.63;0.60;;;;;;;5.36;41.88;91173.00;5129090;27;20525;-76
2023/04/14 02:38:32;;;;;;;0.68;0.68;;;;;;;5.35;41.47;91176.63;5106926;27;20027;-76
2023/04/14 02:41:03;;;;;;;0.60;0.60;;;;;;;5.49;40.78;91178.47;5119644;27;20055;-75
2023/04/14 02:43:32;;;;;;;0.88;0.68;;;;;;;5.35;41.82;91186.25;5121640;27;20055;-75
2023/04/14 02:46:03;;;;;;;0.82;0.80;;;;;;;5.26;42.45;91185.38;5124922;27;20114;-77
2023/04/14 02:48:33;;;;;;;1.30;0.80;;;;;;;5.12;43.54;91175.72;5098191;27;20168;-77
2023/04/14 02:51:00;;;;;;;0.40;0.40;;;;;;;5.02;44.18;91186.25;5119581;27;20400;-77
2023/04/14 02:53:28;;;;;;;0.68;0.68;;;;;;;4.93;45.29;91180.94;5104987;27;20092;-77
2023/04/14 02:56:07;;;;;;;0.50;0.50;;;;;;;5.41;39.49;91178.09;5103257;27;20039;-77
2023/04/14 02:58:38;;;;;;;0.55;0.55;;;;;;;5.24;41.61;91177.09;5087302;27;20377;-77
2023/04/14 03:01:04;;;;;;;1.17;0.70;;;;;;;5.12;42.29;91180.91;5105550;27;20031;-77
2023/04/14 03:03:36;;;;;;;1.95;0.85;;;;;;;5.03;43.73;91180.00;5110857;27;20038;-77
2023/04/14 03:06:05;;;;;;;1.10;0.75;;;;;;;4.88;44.86;91172.47;5103706;27;20099;-77
2023/04/14 03:08:33;;;;;;;0.63;0.63;;;;;;;4.75;45.40;91172.16;5102516;27;20069;-77
2023/04/14 03:11:01;;;;;;;0.60;0.60;;;;;;;4.89;41.63;91177.38;5120772;27;20030;-77
2023/04/14 03:13:32;;;;;;;0.60;0.60;;;;;;;4.83;42.62;91173.31;5091789;28;20506;-77
2023/04/14 03:15:58;;;;;;;0.88;0.70;;;;;;;5.07;41.33;91175.03;5107238;28;20478;-77
2023/04/14 03:18:26;;;;;;;0.50;0.50;;;;;;;5.08;40.87;91189.53;5105649;28;20096;-77
2023/04/14 03:20:56;;;;;;;0.70;0.70;;;;;;;5.45;37.48;91173.13;5090251;28;20405;-77
2023/04/14 03:23:24;;;;;;;0.63;0.50;;;;;;;5.50;39.07;91175.63;5106300;28;20050;-75
2023/04/14 03:25:55;;;;;;;;;;;;;;;5.42;40.02;91176.25;5083612;28;20051;-75
2023/04/14 03:28:29;;;;;;;3.15;0.70;;;;;;;5.43;39.10;91159.66;5106152;28;20381;-77
2023/04/14 03:31:00;;;;;;;0.98;0.60;;;;;;;5.36;39.92;91174.84;5105396;28;20436;-77
2023/04/14 03:33:32;;;;;;;0.82;0.80;;;;;;;5.33;41.74;91165.00;5104140;28;20527;-76
2023/04/14 03:36:00;;;;;;;0.70;0.68;;;;;;;5.46;37.65;91164.25;5089921;28;20565;-77
2023/04/14 03:38:27;;;;;;;0.93;0.80;;;;;;;5.64;38.68;91150.44;5072862;28;20119;-77
2023/04/14 03:40:58;;;;;;;0.75;0.70;;;;;;;5.58;39.58;91161.97;5096552;28;20044;-77
2023/04/14 03:43:27;;;;;;;0.80;0.80;;;;;;;5.80;38.21;91157.94;5089755;28;20081;-77
2023/04/14 03:45:59;;;;;;;0.60;0.50;;;;;;;5.53;40.58;91167.25;5105576;28;20138;-76
2023/04/14 03:48:29;;;;;;;0.60;0.60;;;;;;;5.47;41.02;91165.81;5106620;28;20040;-77
2023/04/14 03:50:58;;;;;;;0.60;0.60;;;;;;;5.25;41.76;91168.28;5104250;28;20026;-77
2023/04/14 03:53:26;;;;;;;0.80;0.65;;;;;;;5.14;41.78;91163.25;5105095;28;20501;-77
2023/04/14 03:55:57;;;;;;;0.65;0.52;;;;;;;4.99;42.60;91173.84;5106408;28;20051;-77
2023/04/14 03:58:24;;;;;;;0.82;0.70;;;;;;;4.93;41.19;91162.81;5105648;28;20126;-77
2023/04/14 04:00:52;;;;;;;0.40;0.40;;;;;;;5.19;39.56;91165.75;5104603;28;20032;-77
2023/04/14 04:03:19;;;;;;;0.82;0.60;;;;;;;5.08;42.37;91168.78;5090524;28;20036;-77
2023/04/14 04:05:46;;;;;;;0.85;0.70;;;;;;;4.97;43.14;91183.72;5105320;28;20055;-77
2023/04/14 04:08:13;;;;;;;0.65;0.60;;;;;;;5.05;41.07;91169.38;5089284;28;20036;-77
2023/04/14 04:10:41;;;;;;;0.98;0.75;;;;;;;4.96;41.57;91171.84;5089626;28;20038;-77
2023/04/14 04:13:14;;;;;;;0.60;0.60;;;;;;;4.87;41.74;91171.69;5093302;28;20036;-77
2023/04/14 04:15:41;;;;;;;0.98;0.60;;;;;;;5.12;40.64;91175.72;5098487;28;20036;-77
2023/04/14 04:18:12;;;;;;;1.80;0.63;;;;;;;5.39;38.93;91164.63;5103204;28;20043;-77
2023/04/14 04:20:40;;;;;;;0.57;0.57;;;;;;;5.25;40.59;91174.22;5111864;28;20039;-76
2023/04/14 04:23:08;;;;;;;1.35;0.60;;;;;;;5.04;41.15;91178.94;5101688;28;20088;-77
2023/04/14 04:25:37;;;;;;;0.65;0.65;;;;;;;5.00;42.76;91183.19;5117499;28;20032;-76
2023/04/14 04:28:20;;;;;;;0.70;0.70;;;;;;;4.87;42.42;91176.13;5098548;28;20119;-76
2023/04/14 04:30:47;;;;;;;0.68;0.60;;;;;;;4.74;44.70;91196.50;5119485;27;20031;-76
2023/04/14 04:33:14;;;;;;;0.50;0.50;;;;;;;4.89;42.22;91176.63;5106105;28;20430;-76
2023/04/14 04:35:41;;;;;;;1.35;0.60;;;;;;;4.83;43.84;91190.69;5126630;27;20102;-77
2023/04/14 04:38:10;;;;;;;1.42;0.80;;;;;;;4.89;40.84;91187.00;5101564;28;20032;-77
2023/04/14 04:40:37;;;;;;;1.50;0.73;;;;;;;4.87;42.34;91189.09;5104669;28;20546;-77
2023/04/14 04:43:07;;;;;;;0.60;0.60;;;;;;;4.78;42.04;91197.50;5102680;28;20059;-77
2023/04/14 04:46:12;;;;;;;0.47;0.47;;;;;;;4.66;44.66;91189.38;5108056;27;20162;-76
2023/04/14 04:48:38;;;;;;;0.43;0.40;;;;;;;4.55;44.31;91203.53;5106679;27;20048;-76
2023/04/14 04:51:04;;;;;;;0.93;0.80;;;;;;;4.43;44.44;91188.38;5087780;28;20477;-77
2023/04/14 04:53:30;;;;;;;0.70;0.68;;;;;;;4.68;41.45;91200.22;5093476;28;20080;-77
2023/04/14 04:55:56;;;;;;;0.60;0.60;;;;;;;4.55;45.07;91199.13;5104991;27;20044;-77
2023/04/14 04:58:22;;;;;;;0.60;0.60;;;;;;;4.45;45.08;91193.31;5106714;28;20035;-77
2023/04/14 05:00:47;;;;;;;0.77;0.70;;;;;;;4.40;45.18;91201.16;5085971;28;20028;-76
2023/04/14 05:03:13;;;;;;;1.00;0.57;;;;;;;4.67;42.36;91203.13;5102615;28;20148;-76
2023/04/14 05:05:39;;;;;;;0.98;0.65;;;;;;;4.68;43.49;91208.00;5084266;28;20512;-77
2023/04/14 05:08:04;;;;;;;1.23;0.63;;;;;;;4.66;43.20;91198.97;5124283;27;20035;-76
2023/04/14 05:10:33;;;;;;;0.47;0.47;;;;;;;4.81;43.72;91209.13;5106062;28;20031;-76
2023/04/14 05:12:59;;;;;;;1.15;0.73;;;;;;;4.77;43.69;91201.16;5113707;27;20085;-76
2023/04/14 05:15:25;;;;;;;0.52;0.52;;;;;;;4.81;41.11;91206.53;5121657;27;20500;-77
2023/04/14 05:17:50;;;;;;;0.60;0.60;;;;;;;4.84;44.49;91202.59;5132017;27;20053;-77
2023/04/14 05:20:16;;;;;;;0.80;0.75;;;;;;;4.82;43.05;91215.88;5129130;27;20057;-76
2023/04/14 05:22:42;;;;;;;0.60;0.60;;;;;;;5.04;42.13;91207.47;5127805;27;20512;-77
2023/04/14 05:25:08;;;;;;;1.60;0.70;;;;;;;5.05;40.96;91218.66;5107352;27;20042;-77
2023/04/14 05:27:33;;;;;;;0.70;0.70;;;;;;;5.18;39.17;91226.47;5123645;27;20088;-77
2023/04/14 05:29:59;;;;;;;1.20;0.73;;;;;;;5.17;40.50;91217.13;5110696;27;20095;-76
2023/04/14 05:32:27;;;;;;;1.85;0.90;;;;;;;5.20;41.29;91224.38;5126579;27;20035;-77
2023/04/14 05:34:52;;;;;;;1.25;0.70;;;;;;;5.25;41.56;91220.16;5127001;27;20039;-77
2023/04/14 05:37:18;;;;;;;1.20;0.80;;;;;;;5.38;40.51;91222.78;5109365;27;20035;-76
2023/04/14 05:39:44;;;;;;;0.95;0.60;;;;;;;5.52;40.90;91220.22;5118809;27;20031;-76
2023/04/14 05:42:10;;;;;;;0.52;0.52;;;;;;;5.66;42.42;91214.28;5124773;27;20545;-76
2023/04/14 05:44:35;;;;;;;1.30;0.70;;;;;;;5.86;39.51;91228.75;5110059;27;20043;-76
2023/04/14 05:47:01;;;;;;;0.90;0.65;;;;;;;6.03;40.32;91234.16;5122658;27;20473;-76
2023/04/14 05:49:26;;;;;;;1.05;0.80;;;;;;;6.27;39.59;91225.41;5130936;27;20031;-78
2023/04/14 05:51:55;;;;;;;1.25;0.60;;;;;;;6.44;39.62;91228.19;5127042;27;20031;-79
2023/04/14 05:54:21;;;;;;;0.70;0.68;;;;;;;6.57;39.86;91227.38;5114372;27;20084;-81
2023/04/14 05:56:46;;;;;;;0.70;0.60;;;;;;;6.75;38.95;91233.50;5097773;27;20046;-77
2023/04/14 05:59:12;;;;;;;0.85;0.60;;;;;;;6.92;39.60;91232.13;5121022;27;20258;-79
2023/04/14 06:01:38;;;;;;;0.65;0.65;;;;;;;7.14;38.03;91229.56;5093606;27;20035;-79
2023/04/14 06:04:03;;;;;;;0.95;0.70;;;;;;;7.24;38.39;91234.53;5113659;27;20031;-80
2023/04/14 06:06:31;;;;;;;0.63;0.60;;;;;;;7.63;37.61;91238.31;5094834;27;20093;-80
2023/04/14 06:08:57;;;;;;;1.05;0.68;;;;;;;7.83;36.89;91234.41;5110760;27;20043;-80
2023/04/14 06:11:23;;;;;;;0.80;0.80;;;;;;;8.05;36.52;91236.19;5130566;27;20048;-79
2023/04/14 06:13:50;;;;;;;1.00;0.70;;;;;;;8.10;36.77;91228.25;5126779;27;20379;-79
2023/04/14 06:16:15;;;;;;;0.70;0.50;;;;;;;8.53;35.44;91238.09;5132618;27;20410;-78
2023/04/14 06:18:41;;;;;;;3.83;0.98;;;;;;;9.78;33.68;91232.25;5128751;27;20087;-80
2023/04/14 06:21:07;;;;;;;1.27;0.80;;;;;;;11.33;31.36;91235.53;5134140;27;20568;-81
2023/04/14 06:23:33;;;;;;;0.80;0.70;;;;;;;12.24;30.05;91228.50;5127411;27;20031;-80
2023/04/14 06:25:59;;;;;;;0.65;0.60;;;;;;;13.07;27.16;91231.75;5111926;27;20038;-79
2023/04/14 06:28:25;;;;;;;1.02;0.80;;;;;;;13.52;28.23;91230.03;5133231;27;20484;-80
2023/04/14 06:30:51;;;;;;;1.25;0.90;;;;;;;14.09;27.88;91238.66;5097146;27;20040;-81
2023/04/14 06:33:17;;;;;;;0.73;0.60;;;;;;;15.11;26.82;91235.44;5117004;27;20038;-77
2023/04/14 06:35:43;;;;;;;1.58;0.82;;;;;;;15.18;25.55;91235.59;5130044;27;20035;-78
2023/04/14 06:38:10;;;;;;;0.60;0.60;;;;;;;16.12;24.36;91240.81;5096180;27;20139;-79
2023/04/14 06:40:35;;;;;;;3.38;0.80;;;;;;;16.37;22.19;91220.91;5112430;27;20139;-78
2023/04/14 06:43:01;;;;;;;2.58;1.20;;;;;;;15.01;24.78;91234.09;5101726;27;20126;-77
2023/04/14 06:45:27;;;;;;;2.35;1.00;;;;;;;15.78;24.84;91238.72;5124673;27;20035;-78
2023/04/14 06:47:52;;;;;;;0.63;0.63;;;;;;;16.79;21.93;91237.78;5101063;27;20056;-78
2023/04/14 06:50:18;;;;;;;0.60;0.60;;;;;;;16.83;23.01;91236.00;5119327;27;20035;-79
2023/04/14 06:52:43;;;;;;;1.35;0.90;;;;;;;17.18;23.87;91243.69;5113187;27;20035;-78
2023/04/14 06:55:10;;;;;;;0.80;0.70;;;;;;;17.81;22.48;91244.09;5115750;27;20397;-79
2023/04/14 06:57:36;;;;;;;1.23;0.90;;;;;;;16.33;21.54;91241.22;5104168;27;20100;-78
2023/04/14 07:00:06;;;;;;;0.50;0.50;;;;;;;15.98;23.33;91250.00;5123589;27;20461;-77
2023/04/14 07:02:31;;;;;;;0.82;0.70;;;;;;;15.12;24.95;91245.63;5119671;27;21497;-78
2023/04/14 07:04:57;;;;;;;1.48;0.60;;;;;;;14.65;27.04;91250.97;5102708;27;20031;-78
2023/04/14 07:07:23;;;;;;;0.73;0.65;;;;;;;14.41;27.02;91254.47;5118453;27;20613;-78
2023/04/14 07:09:49;;;;;;;1.08;0.70;;;;;;;13.93;26.26;91252.53;5117131;27;20043;-78
2023/04/14 07:12:16;;;;;;;2.85;0.60;;;;;;;14.46;27.94;91247.13;5119593;27;20050;-78
2023/04/14 07:14:41;;;;;;;1.33;0.70;;;;;;;14.64;26.03;91246.81;5098669;27;20499;-77
2023/04/14 07:17:08;;;;;;;0.95;0.60;;;;;;;14.79;25.72;91248.66;5101091;27;20039;-79
2023/04/14 07:19:33;;;;;;;0.93;0.75;;;;;;;14.75;25.01;91243.31;5106472;27;20051;-79
2023/04/14 07:21:59;;;;;;;0.90;0.65;;;;;;;12.85;26.50;91248.00;5102646;28;20496;-79
2023/04/14 07:24:25;;;;;;;1.17;0.60;;;;;;;13.60;26.44;91259.91;5106465;28;20107;-77
2023/04/14 07:26:51;;;;;;;1.45;0.90;;;;;;;13.39;25.01;91265.34;5112506;27;20045;-78
2023/04/14 07:29:16;;;;;;;0.80;0.70;;;;;;;14.05;25.28;91261.47;5106935;28;20326;-78
2023/04/14 07:31:42;;;;;;;1.20;0.80;;;;;;;13.61;24.44;91253.56;5105077;28;20070;-79
2023/04/14 07:34:10;;;;;;;1.38;0.75;;;;;;;13.34;27.12;91261.09;5101222;27;20794;-79
2023/04/14 07:36:36;;;;;;;3.40;0.80;;;;;;;12.75;26.47;91279.97;5070702;28;20524;-79
2023/04/14 07:39:01;;;;;;;0.60;0.60;;;;;;;12.91;29.68;91272.94;5117104;27;20039;-79
2023/04/14 07:41:27;;;;;;;0.80;0.80;;;;;;;13.36;27.27;91266.78;5104891;28;20046;-77
2023/04/14 07:43:57;;;;;;;0.65;0.60;;;;;;;13.51;26.34;91279.22;5095586;28;20027;-77
2023/04/14 07:46:23;;;;;;;3.05;0.80;;;;;;;12.81;27.89;91270.75;5103512;28;20047;-78
2023/04/14 07:48:50;;;;;;;2.35;0.75;;;;;;;13.44;28.48;91276.41;5120523;27;20405;-78
2023/04/14 07:51:16;;;;;;;0.65;0.65;;;;;;;13.93;27.98;91278.09;5082764;28;20038;-78
2023/04/14 07:53:43;;;;;;;3.95;0.70;;;;;;;14.25;27.95;91278.94;5117394;27;20050;-79
2023/04/14 07:56:10;;;;;;;0.50;0.50;;;;;;;14.57;26.05;91277.13;5117248;27;20032;-78
2023/04/14 07:58:36;;;;;;;1.05;0.70;;;;;;;14.87;25.12;91283.84;5101639;28;20063;-79
2023/04/14 08:01:03;;;;;;;0.77;0.70;;;;;;;15.18;25.77;91285.69;5095983;27;20095;-77
2023/04/14 08:03:29;;;;;;;0.73;0.55;;;;;;;14.47;23.39;91290.75;5106088;28;20027;-78
2023/04/14 08:05:55;;;;;;;2.53;0.70;;;;;;;14.47;27.02;91287.38;5100994;28;20028;-79
2023/04/14 08:08:20;;;;;;;0.60;0.60;;;;;;;14.83;26.19;91293.53;5103907;28;20039;-79
2023/04/14 08:10:46;;;;;;;0.95;0.70;;;;;;;15.05;24.86;91298.19;5069452;28;20040;-78
2023/04/14 08:13:12;;;;;;;0.88;0.57;;;;;;;14.92;23.80;91286.97;5099513;28;20044;-78
2023/04/14 08:15:37;;;;;;;0.40;0.40;;;;;;;13.43;25.23;91288.00;5092303;28;20397;-77
2023/04/14 08:18:03;;;;;;;1.45;0.80;;;;;;;13.16;28.59;91299.19;5104930;28;20035;-78
2023/04/14 08:20:29;;;;;;;0.65;0.60;;;;;;;13.82;26.79;91282.31;5089070;28;20044;-79
2023/04/14 08:22:56;;;;;;;0.60;0.60;;;;;;;13.23;26.86;91294.16;5098308;28;20092;-77
2023/04/14 08:25:21;;;;;;;1.55;0.60;;;;;;;13.47;27.52;91309.91;5088093;28;20043;-78
2023/04/14 08:27:47;;;;;;;0.60;0.60;;;;;;;13.56;25.07;91303.75;5085213;28;20040;-78
2023/04/14 08:30:13;;;;;;;0.60;0.60;;;;;;;13.57;27.68;91316.56;5092126;28;20028;-78
2023/04/14 08:32:39;;;;;;;0.70;0.70;;;;;;;13.36;26.51;91287.81;5065795;28;20050;-78
2023/04/14 08:35:05;;;;;;;0.73;0.73;;;;;;;12.64;27.87;91311.88;5073420;28;20043;-79
2023/04/14 08:37:31;;;;;;;1.55;0.60;;;;;;;11.91;26.68;91319.56;5073516;28;20043;-77
2023/04/14 08:39:56;;;;;;;0.50;0.50;;;;;;;12.40;27.30;91324.97;5083525;28;20047;-76
2023/04/14 08:42:22;;;;;;;0.70;0.60;;;;;;;12.26;28.78;91328.66;5078862;28;20035;-80
2023/04/14 08:44:48;;;;;;;1.63;0.80;;;;;;;12.80;27.61;91319.13;5087405;28;20038;-77
2023/04/14 08:47:14;;;;;;;0.73;0.70;;;;;;;13.33;27.47;91315.53;5081374;28;20440;-77
2023/04/14 08:49:44;;;;;;;2.05;0.70;;;;;;;13.18;26.32;91325.91;5094338;28;20052;-77
2023/04/14 08:52:11;;;;;;;0.50;0.50;;;;;;;12.89;26.88;91327.66;5094079;28;20489;-80
2023/04/14 08:54:40;;;;;;;0.60;0.60;;;;;;;13.36;27.43;91323.84;5077119;28;20552;-79
2023/04/14 08:57:11;;;;;;;0.77;0.70;;;;;;;13.72;27.24;91333.53;5078911;28;20099;-80
2023/04/14 08:59:37;;;;;;;1.00;0.70;;;;;;;13.30;25.17;91337.19;5095607;28;20046;-80
2023/04/14 09:02:06;;;;;;;0.85;0.70;;;;;;;13.18;26.78;91323.28;5096806;28;20145;-79
2023/04/14 09:04:32;;;;;;;0.60;0.60;;;;;;;13.46;26.51;91321.50;5095301;28;20036;-79
2023/04/14 09:06:58;;;;;;;1.27;0.80;;;;;;;13.60;26.14;91344.84;5085519;28;20029;-78
2023/04/14 09:09:24;;;;;;;2.65;0.63;;;;;;;13.92;25.70;91340.47;5084367;28;20040;-78
2023/04/14 09:11:50;;;;;;;0.60;0.60;;;;;;;14.11;27.85;91352.25;5094940;28;20389;-79
2023/04/14 09:14:17;;;;;;;1.58;0.70;;;;;;;13.82;26.23;91348.81;5101880;28;20043;-78
2023/04/14 09:16:43;;;;;;;1.65;0.47;;;;;;;13.33;26.40;91352.31;5119959;27;20073;-79
2023/04/14 09:19:10;;;;;;;0.50;0.50;;;;;;;13.24;26.46;91342.97;5139444;27;20041;-79
2023/04/14 09:21:37;;;;;;;0.52;0.52;;;;;;;13.42;27.95;91343.53;5138150;27;20051;-80
2023/04/14 09:24:04;;;;;;;0.65;0.60;;;;;;;13.45;26.03;91351.53;5122160;27;20035;-79
2023/04/14 09:26:30;;;;;;;0.47;0.40;;;;;;;13.62;26.02;91361.06;5119451;27;20035;-79
2023/04/14 09:28:56;;;;;;;0.65;0.55;;;;;;;13.45;26.78;91353.41;5138428;27;20056;-79
2023/04/14 09:31:22;;;;;;;0.52;0.50;;;;;;;13.46;27.46;91358.31;5118505;27;20031;-78
2023/04/14 09:33:51;;;;;;;1.33;0.80;;;;;;;13.42;26.36;91354.03;5141057;27;20118;-78
2023/04/14 09:36:19;;;;;;;0.90;0.60;;;;;;;13.50;27.91;91355.78;5119128;27;20038;-79
2023/04/14 09:38:45;;;;;;;1.20;0.65;;;;;;;13.83;25.79;91360.13;5140869;27;20034;-79
2023/04/14 09:41:16;;;;;;;7.55;1.10;;;;;;;12.80;25.85;91358.50;5142303;27;20077;-78
2023/04/14 09:43:42;;;;;;;3.47;0.75;;;;;;;12.74;27.49;91354.56;5123982;27;20400;-79
2023/04/14 09:46:09;;;;;;;4.25;1.00;;;;;;;13.29;27.75;91355.94;5120262;27;20035;-79
2023/04/14 09:48:38;;;;;;;2.30;0.70;;;;;;;13.03;26.48;91356.22;5106336;28;20081;-80
2023/04/14 09:51:08;;;;;;;2.42;0.80;;;;;;;12.90;26.24;91365.94;5086248;28;20031;-80
2023/04/14 09:53:35;;;;;;;3.70;0.90;;;;;;;13.63;26.06;91344.16;5100808;27;20122;-80
2023/04/14 09:56:06;;;;;;;0.77;0.60;;;;;;;13.48;27.75;91363.25;5140991;27;20104;-79
2023/04/14 09:58:34;;;;;;;0.70;0.70;;;;;;;13.54;27.30;91352.16;5110510;28;20504;-78
2023/04/14 10:01:04;;;;;;;0.65;0.65;;;;;;;13.03;26.95;91374.63;5128887;27;20084;-79
2023/04/14 10:03:45;;;;;;;0.60;0.60;;;;;;;12.70;26.21;91363.09;5121423;27;20031;-79
2023/04/14 10:06:19;;;;;;;1.85;0.95;;;;;;;13.17;27.95;91363.78;5123397;27;20106;-78
2023/04/14 10:08:49;;;;;;;1.05;0.70;;;;;;;13.18;25.91;91383.72;5119843;28;20042;-79
2023/04/14 10:11:16;;;;;;;0.90;0.80;;;;;;;12.67;26.45;91374.22;5120310;27;20070;-79
2023/04/14 10:13:48;;;;;;;0.73;0.73;;;;;;;13.02;27.22;91381.72;5119108;27;20047;-78
2023/04/14 10:16:14;;;;;;;0.77;0.77;;;;;;;12.92;27.00;91374.28;5123531;27;20591;-80
2023/04/14 10:18:40;;;;;;;0.95;0.73;;;;;;;12.41;25.38;91376.38;5121630;27;20083;-79
2023/04/14 10:21:07;;;;;;;1.45;0.70;;;;;;;12.65;26.73;91380.91;5119101;27;20038;-79
2023/04/14 10:23:38;;;;;;;1.23;0.70;;;;;;;12.74;27.47;91384.19;5103694;27;20031;-79
2023/04/14 10:26:06;;;;;;;0.60;0.60;;;;;;;12.86;27.60;91370.34;5120688;27;20362;-77
2023/04/14 10:28:36;;;;;;;0.47;0.47;;;;;;;13.00;28.25;91370.78;5131651;27;20015;-79
2023/04/14 10:31:07;;;;;;;1.80;1.05;;;;;;;12.87;27.67;91382.38;5129907;27;20035;-78
2023/04/14 10:33:36;;;;;;;0.98;0.90;;;;;;;12.78;25.94;91368.56;5116878;27;20027;-80
2023/04/14 10:36:03;;;;;;;0.70;0.70;;;;;;;13.04;28.08;91371.66;5112953;27;20035;-78
2023/04/14 10:38:45;;;;;;;3.15;0.90;;;;;;;13.27;28.04;91373.88;5112803;27;20374;-78
2023/04/14 10:41:11;;;;;;;1.05;0.80;;;;;;;12.71;26.91;91367.25;5131236;27;20128;-81
2023/04/14 10:43:38;;;;;;;0.55;0.55;;;;;;;13.16;28.31;91354.38;5133488;27;20473;-80
2023/04/14 10:46:06;;;;;;;1.00;0.50;;;;;;;13.05;25.63;91373.19;5131340;27;20031;-80
2023/04/14 10:48:40;;;;;;;0.60;0.60;;;;;;;13.11;26.60;91366.63;5135432;27;20027;-79
2023/04/14 10:51:09;;;;;;;0.77;0.60;;;;;;;13.01;26.67;91359.16;5134988;27;20035;-79
2023/04/14 10:53:47;;;;;;;1.55;0.80;;;;;;;12.83;26.21;91355.97;5114627;27;20015;-80
2023/04/14 10:56:13;;;;;;;0.50;0.50;;;;;;;12.96;27.34;91356.00;5111314;27;20035;-81
2023/04/14 10:58:39;;;;;;;0.50;0.50;;;;;;;13.05;26.40;91356.66;5115798;27;20084;-79
2023/04/14 11:01:24;;;;;;;0.57;0.52;;;;;;;12.87;28.49;91358.72;5137288;27;20030;-78
2023/04/14 11:03:52;;;;;;;1.23;0.95;;;;;;;12.82;27.30;91354.47;5120501;27;20027;-78
2023/04/14 11:06:45;;;;;;;0.50;0.50;;;;;;;13.27;27.36;91345.72;5130336;27;20067;-79
2023/04/14 11:09:36;;;;;;;0.57;0.57;;;;;;;13.40;26.06;91354.38;5115690;27;20034;-81
2023/04/14 11:12:27;;;;;;;0.73;0.60;;;;;;;13.69;25.77;91344.69;5103171;27;20039;-78
2023/04/14 11:15:03;;;;;;;1.00;0.77;;;;;;;13.71;26.22;91337.22;5132438;27;20092;-79
2023/04/14 11:17:31;;;;;;;1.85;0.60;;;;;;;13.45;26.13;91346.28;5090333;27;20309;-78
2023/04/14 11:19:57;;;;;;;1.00;0.65;;;;;;;12.98;25.89;91341.44;5093317;27;20035;-77
2023/04/14 11:22:44;;;;;;;0.85;0.70;;;;;;;13.53;26.88;91344.59;5112482;27;20035;-79
2023/04/14 11:25:14;;;;;;;1.05;0.65;;;;;;;13.67;26.20;91336.38;5117033;27;20066;-79
2023/04/14 11:27:41;;;;;;;3.00;0.68;;;;;;;13.50;25.11;91340.78;5114026;27;20030;-82
2023/04/14 11:30:12;;;;;;;0.60;0.60;;;;;;;13.35;26.24;91362.47;5122637;27;20041;-78
2023/04/14 11:32:52;;;;;;;1.08;0.80;;;;;;;13.73;26.99;91337.66;5115204;27;21043;-80
2023/04/14 11:35:19;;;;;;;0.70;0.60;;;;;;;13.57;25.87;91356.00;5118504;27;20054;-78
2023/04/14 11:37:45;;;;;;;0.73;0.70;;;;;;;13.22;25.80;91334.66;5113766;27;20043;-78
2023/04/14 11:40:13;;;;;;;0.52;0.52;;;;;;;13.08;26.35;91351.53;5091892;27;20100;-78
2023/04/14 11:42:46;;;;;;;0.52;0.52;;;;;;;13.44;25.50;91351.84;5114004;27;20124;-79
2023/04/14 11:45:14;;;;;;;0.73;0.73;;;;;;;13.28;26.48;91334.16;5125426;27;20031;-80